createdAt,value
2023-01-20T00:00:52.682Z,94254.13
2023-01-20T00:03:42.414Z,94251.31
2023-01-20T00:06:30.638Z,94238.66
2023-01-20T00:09:18.035Z,94215.59
2023-01-20T00:12:04.102Z,94206.25
2023-01-20T00:14:54.051Z,94229.34
2023-01-20T00:17:39.801Z,94221.59
2023-01-20T00:20:25.749Z,94221.88
2023-01-20T00:23:11.411Z,94217.94
2023-01-20T00:26:24.154Z,94223.47
2023-01-20T00:29:10.174Z,94209.72
2023-01-20T00:31:56.250Z,94210.81
2023-01-20T00:34:41.803Z,94220.47
2023-01-20T00:37:33.007Z,94229.78
2023-01-20T00:40:18.622Z,94239.09
2023-01-20T00:43:04.153Z,94237.06
2023-01-20T00:46:05.652Z,94246.72
2023-01-20T00:48:52.214Z,94243.53
2023-01-20T00:51:38.317Z,94234.22
2023-01-20T00:54:24.156Z,94235.31
2023-01-20T00:57:13.135Z,94236.91
2023-01-20T00:59:59.122Z,94221.88
2023-01-20T01:02:44.815Z,94199.31
2023-01-20T01:05:39.516Z,94190.28
2023-01-20T01:08:25.705Z,94192.19
2023-01-20T01:11:13.654Z,94196.09
2023-01-20T01:14:02.659Z,94196.63
2023-01-20T01:16:48.335Z,94189.16
2023-01-20T01:19:34.134Z,94180.50
2023-01-20T01:22:55.602Z,94195.31
2023-01-20T01:25:41.754Z,94198.50
2023-01-20T01:28:32.556Z,94201.47
2023-01-20T01:31:19.125Z,94204.16
2023-01-20T01:34:04.755Z,94204.34
2023-01-20T01:36:58.906Z,94208.13
2023-01-20T01:39:44.542Z,94204.66
2023-01-20T01:42:30.303Z,94210.03
2023-01-20T01:45:21.820Z,94209.56
2023-01-20T01:48:10.398Z,94203.72
2023-01-20T01:51:03.512Z,94205.91
2023-01-20T01:53:54.018Z,94195.16
2023-01-20T01:56:41.870Z,94204.34
2023-01-20T01:59:30.760Z,94178.13
2023-01-20T02:02:17.210Z,94188.69
2023-01-20T02:05:24.459Z,94188.22
2023-01-20T02:08:10.575Z,94181.75
2023-01-20T02:10:56.278Z,94173.22
2023-01-20T02:14:15.108Z,94162.94
2023-01-20T02:17:27.765Z,94162.94
2023-01-20T02:21:10.891Z,94166.41
2023-01-20T02:24:24.540Z,94151.72
2023-01-20T02:28:05.261Z,94146.53
2023-01-20T02:31:21.731Z,94142.88
2023-01-20T02:34:23.926Z,94140.84
2023-01-20T02:37:11.522Z,94144.66
2023-01-20T02:40:22.773Z,94136.75
2023-01-20T02:43:23.539Z,94126.50
2023-01-20T02:46:23.324Z,94117.00
2023-01-20T02:49:21.678Z,94100.28
2023-01-20T02:52:12.430Z,94094.75
2023-01-20T02:55:09.390Z,94103.59
2023-01-20T02:58:00.888Z,94091.25
2023-01-20T03:01:02.376Z,94097.41
2023-01-20T03:04:05.455Z,94099.78
2023-01-20T03:06:53.593Z,94085.09
2023-01-20T03:09:46.153Z,94085.28
2023-01-20T03:12:38.316Z,94079.91
2023-01-20T03:15:42.931Z,94081.50
2023-01-20T03:18:29.795Z,94076.25
2023-01-20T03:21:16.744Z,94064.75
2023-01-20T03:24:04.053Z,94069.66
2023-01-20T03:26:52.204Z,94080.06
2023-01-20T03:29:40.877Z,94073.91
2023-01-20T03:32:27.166Z,94065.22
2023-01-20T03:35:17.692Z,94066.97
2023-01-20T03:38:03.372Z,94093.16
2023-01-20T03:41:14.945Z,94083.06
2023-01-20T03:44:37.453Z,94065.88
2023-01-20T03:47:46.789Z,94074.06
2023-01-20T03:51:01.449Z,94072.31
2023-01-20T03:54:01.629Z,94073.59
2023-01-20T03:57:09.039Z,94078.97
2023-01-20T03:59:54.950Z,94082.09
2023-01-20T04:02:41.442Z,94073.28
2023-01-20T04:05:29.339Z,94073.59
2023-01-20T04:08:17.122Z,94069.16
2023-01-20T04:11:07.464Z,94065.22
2023-01-20T04:13:54.068Z,94070.72
2023-01-20T04:16:40.258Z,94059.97
2023-01-20T04:19:28.166Z,94060.94
2023-01-20T04:22:28.014Z,94063.00
2023-01-20T04:25:17.834Z,94056.50
2023-01-20T04:28:04.518Z,94051.91
2023-01-20T04:30:50.912Z,94043.41
2023-01-20T04:33:38.420Z,94030.91
2023-01-20T04:36:33.291Z,94036.59
2023-01-20T04:39:19.518Z,94032.66
2023-01-20T04:42:05.396Z,94029.63
2023-01-20T04:44:53.143Z,94037.69
2023-01-20T04:47:38.981Z,94021.13
2023-01-20T04:50:24.657Z,94018.47
2023-01-20T04:53:16.888Z,94023.34
2023-01-20T04:56:04.113Z,94021.13
2023-01-20T04:59:08.428Z,94011.03
2023-01-20T05:01:54.583Z,94010.41
2023-01-20T05:04:40.688Z,94010.41
2023-01-20T05:07:26.515Z,94020.66
2023-01-20T05:10:13.282Z,94012.13
2023-01-20T05:13:07.689Z,94007.25
2023-01-20T05:15:53.267Z,94009.63
2023-01-20T05:18:39.407Z,94006.59
2023-01-20T05:21:26.638Z,94008.03
2023-01-20T05:24:12.590Z,94017.97
2023-01-20T05:27:01.073Z,94015.13
2023-01-20T05:30:21.797Z,94026.66
2023-01-20T05:33:07.477Z,94033.13
2023-01-20T05:35:55.984Z,94050.19
2023-01-20T05:38:41.816Z,94054.00
2023-01-20T05:41:27.525Z,94051.63
2023-01-20T05:44:14.399Z,94050.19
2023-01-20T05:47:06.675Z,94061.56
2023-01-20T05:49:52.364Z,94059.34
2023-01-20T05:52:38.133Z,94066.31
2023-01-20T05:55:26.155Z,94059.97
2023-01-20T05:58:12.151Z,94079.25
2023-01-20T06:01:09.244Z,94074.50
2023-01-20T06:03:55.044Z,94055.25
2023-01-20T06:06:48.173Z,94041.53
2023-01-20T06:09:33.841Z,94065.69
2023-01-20T06:12:19.705Z,94063.19
2023-01-20T06:15:06.274Z,94060.00
2023-01-20T06:17:52.664Z,94051.50
2023-01-20T06:20:38.947Z,94059.69
2023-01-20T06:23:25.758Z,94087.16
2023-01-20T06:26:12.993Z,94095.69
2023-01-20T06:29:00.725Z,94092.53
2023-01-20T06:31:47.354Z,94127.91
2023-01-20T06:34:33.089Z,94129.47
2023-01-20T06:37:19.682Z,94120.97
2023-01-20T06:40:06.036Z,94131.69
2023-01-20T06:42:51.712Z,94142.25
2023-01-20T06:45:38.466Z,94153.28
2023-01-20T06:48:24.473Z,94163.06
2023-01-20T06:51:13.416Z,94167.97
2023-01-20T06:53:59.907Z,94175.53
2023-01-20T06:56:45.881Z,94176.16
2023-01-20T06:59:31.799Z,94184.38
2023-01-20T07:02:17.745Z,94201.41
2023-01-20T07:05:04.681Z,94199.03
2023-01-20T07:07:50.791Z,94212.13
2023-01-20T07:10:36.977Z,94204.72
2023-01-20T07:13:23.197Z,94195.22
2023-01-20T07:16:11.468Z,94202.66
2023-01-20T07:18:58.645Z,94205.47
2023-01-20T07:21:44.341Z,94202.50
2023-01-20T07:24:30.010Z,94200.13
2023-01-20T07:27:15.734Z,94207.06
2023-01-20T07:30:01.386Z,94203.28
2023-01-20T07:32:47.008Z,94210.22
2023-01-20T07:35:33.019Z,94222.53
2023-01-20T07:38:18.769Z,94222.97
2023-01-20T07:41:07.523Z,94240.16
2023-01-20T07:43:54.418Z,94242.22
2023-01-20T07:46:40.393Z,94243.91
2023-01-20T07:49:26.237Z,94245.50
2023-01-20T07:52:13.231Z,94253.25
2023-01-20T07:54:59.141Z,94248.06
2023-01-20T07:57:44.855Z,94248.06
2023-01-20T08:00:30.630Z,94254.03
2023-01-20T08:03:16.459Z,94267.41
2023-01-20T08:06:13.642Z,94275.19
2023-01-20T08:09:01.662Z,94278.13
2023-01-20T08:11:48.262Z,94283.38
2023-01-20T08:14:35.665Z,94290.78
2023-01-20T08:17:23.526Z,94300.88
2023-01-20T08:20:10.625Z,94293.91
2023-01-20T08:22:56.349Z,94307.00
2023-01-20T08:26:02.117Z,94324.44
2023-01-20T08:28:48.215Z,94329.19
2023-01-20T08:31:38.627Z,94334.66
2023-01-20T08:34:24.571Z,94339.28
2023-01-20T08:37:13.210Z,94335.03
2023-01-20T08:39:58.875Z,94343.84
2023-01-20T08:51:55.506Z,94334.38
2023-01-20T08:54:41.277Z,94340.72
2023-01-20T08:57:27.265Z,94335.34
2023-01-20T09:00:16.463Z,94343.28
2023-01-20T09:03:02.251Z,94349.91
2023-01-20T09:05:50.390Z,94351.41
2023-01-20T09:08:37.305Z,94346.94
2023-01-20T09:11:27.675Z,94331.97
2023-01-20T09:14:49.649Z,94344.25
2023-01-20T09:17:36.208Z,94346.91
2023-01-20T09:20:24.800Z,94347.25
2023-01-20T09:23:10.659Z,94345.94
2023-01-20T09:26:34.192Z,94362.00
2023-01-20T09:29:20.794Z,94367.44
2023-01-20T09:32:06.507Z,94366.25
2023-01-20T09:34:53.168Z,94354.78
2023-01-20T09:41:46.888Z,94344.44
2023-01-20T09:45:42.597Z,94351.00
2023-01-20T09:49:09.085Z,94339.91
2023-01-20T09:52:35.462Z,94358.13
2023-01-20T09:56:01.478Z,94342.25
2023-01-20T10:03:38.211Z,94342.88
2023-01-20T10:06:33.973Z,94343.34
2023-01-20T10:09:54.568Z,94338.50
2023-01-20T10:12:44.516Z,94350.00
2023-01-20T10:15:32.369Z,94347.25
2023-01-20T10:18:52.760Z,94324.34
2023-01-20T10:21:43.916Z,94330.78
2023-01-20T10:24:32.702Z,94330.69
2023-01-20T10:27:24.662Z,94309.97
2023-01-20T10:30:13.102Z,94294.63
2023-01-20T10:33:04.163Z,94294.88
2023-01-20T10:35:55.236Z,94302.22
2023-01-20T10:39:26.901Z,94299.59
2023-01-20T10:43:33.017Z,94300.97
2023-01-20T10:52:27.496Z,94308.94
2023-01-20T10:55:19.367Z,94314.97
2023-01-20T10:58:27.969Z,94319.44
2023-01-20T11:01:17.129Z,94319.69
2023-01-20T11:04:03.016Z,94306.53
2023-01-20T11:06:55.424Z,94314.41
2023-01-20T11:09:43.624Z,94299.63
2023-01-20T11:12:33.204Z,94301.63
2023-01-20T11:19:47.237Z,94292.13
2023-01-20T11:22:37.196Z,94288.31
2023-01-20T11:25:27.506Z,94290.19
2023-01-20T11:28:18.276Z,94302.63
2023-01-20T11:31:04.643Z,94300.06
2023-01-20T11:34:02.381Z,94305.03
2023-01-20T11:36:49.810Z,94317.00
2023-01-20T11:39:42.374Z,94310.44
2023-01-20T11:42:31.747Z,94306.75
2023-01-20T11:45:36.341Z,94315.06
2023-01-20T11:48:23.003Z,94318.03
2023-01-20T11:51:50.178Z,94315.06
2023-01-20T11:54:37.241Z,94326.56
2023-01-20T11:57:23.233Z,94327.38
2023-01-20T12:00:38.181Z,94326.56
2023-01-20T12:03:48.307Z,94324.38
2023-01-20T12:07:02.825Z,94318.41
2023-01-20T12:09:52.934Z,94313.06
2023-01-20T12:13:11.499Z,94314.66
2023-01-20T12:16:01.327Z,94318.41
2023-01-20T12:19:01.565Z,94322.97
2023-01-20T12:21:52.658Z,94313.47
2023-01-20T12:25:08.705Z,94326.56
2023-01-20T12:28:11.058Z,94324.78
2023-01-20T12:31:02.304Z,94331.53
2023-01-20T12:33:59.047Z,94329.94
2023-01-20T12:36:55.099Z,94333.84
2023-01-20T12:40:05.031Z,94325.44
2023-01-20T12:43:15.081Z,94339.41
2023-01-20T12:46:30.373Z,94348.81
2023-01-20T12:49:59.955Z,94358.34
2023-01-20T12:52:49.110Z,94356.97
2023-01-20T12:55:52.700Z,94368.28
2023-01-20T12:59:17.254Z,94379.28
2023-01-20T13:02:37.679Z,94390.56
2023-01-20T13:05:58.259Z,94387.97
2023-01-20T13:08:52.376Z,94400.06
2023-01-20T13:11:44.120Z,94397.75
2023-01-20T13:14:41.333Z,94399.16
2023-01-20T13:17:33.358Z,94398.94
2023-01-20T13:20:22.760Z,94403.72
2023-01-20T13:23:09.845Z,94396.66
2023-01-20T13:25:55.773Z,94404.03
2023-01-20T13:28:51.477Z,94414.13
2023-01-20T13:31:37.371Z,94410.88
2023-01-20T13:34:22.915Z,94410.31
2023-01-20T13:37:25.145Z,94421.97
2023-01-20T13:40:30.625Z,94435.28
2023-01-20T13:43:22.970Z,94434.69
2023-01-20T13:46:11.707Z,94441.63
2023-01-20T13:49:15.336Z,94443.00
2023-01-20T13:52:00.853Z,94444.91
2023-01-20T13:54:47.357Z,94437.16
2023-01-20T13:57:33.836Z,94434.19
2023-01-20T14:00:23.498Z,94436.88
2023-01-20T14:03:12.818Z,94439.53
2023-01-20T14:05:58.477Z,94448.66
2023-01-20T14:08:47.895Z,94456.47
2023-01-20T14:11:33.436Z,94465.31
2023-01-20T14:14:19.869Z,94471.75
2023-01-20T14:17:05.669Z,94484.03
2023-01-20T14:19:55.183Z,94483.88
2023-01-20T14:22:40.854Z,94500.22
2023-01-20T14:25:26.924Z,94498.13
2023-01-20T14:28:19.625Z,94497.06
2023-01-20T14:31:12.041Z,94502.44
2023-01-20T14:34:01.436Z,94502.44
2023-01-20T14:36:47.476Z,94510.91
2023-01-20T14:39:33.481Z,94517.19
2023-01-20T14:42:20.046Z,94518.75
2023-01-20T14:45:21.553Z,94521.34
2023-01-20T14:48:07.469Z,94527.69
2023-01-20T14:50:54.088Z,94527.13
2023-01-20T14:53:39.668Z,94523.63
2023-01-20T14:56:25.327Z,94520.53
2023-01-20T14:59:16.710Z,94524.63
2023-01-20T15:02:02.799Z,94523.63
2023-01-20T15:04:48.414Z,94525.78
2023-01-20T15:07:35.815Z,94525.28
2023-01-20T15:10:21.254Z,94531.44
2023-01-20T15:13:23.895Z,94538.09
2023-01-20T15:16:12.914Z,94534.31
2023-01-20T15:19:23.713Z,94537.78
2023-01-20T15:22:19.853Z,94534.81
2023-01-20T15:25:11.813Z,94538.59
2023-01-20T15:27:57.747Z,94539.16
2023-01-20T15:30:43.336Z,94543.72
2023-01-20T15:33:29.139Z,94553.63
2023-01-20T15:36:19.339Z,94557.41
2023-01-20T15:39:06.232Z,94558.00
2023-01-20T15:41:55.184Z,94552.44
2023-01-20T15:44:41.182Z,94560.22
2023-01-20T15:47:29.374Z,94562.72
2023-01-20T15:50:19.686Z,94566.47
2023-01-20T15:53:06.506Z,94575.59
2023-01-20T15:55:52.466Z,94575.38
2023-01-20T15:58:37.975Z,94570.59
2023-01-20T16:01:25.290Z,94574.94
2023-01-20T16:04:11.195Z,94562.66
2023-01-20T16:06:56.595Z,94563.00
2023-01-20T16:09:42.734Z,94562.31
2023-01-20T16:12:29.741Z,94559.41
2023-01-20T16:15:16.001Z,94558.63
2023-01-20T16:18:01.925Z,94569.59
2023-01-20T16:20:47.839Z,94566.94
2023-01-20T16:23:33.702Z,94580.81
2023-01-20T16:26:19.695Z,94563.41
2023-01-20T16:29:05.395Z,94569.78
2023-01-20T16:31:51.102Z,94582.53
2023-01-20T16:34:36.689Z,94585.72
2023-01-20T16:37:22.138Z,94598.53
2023-01-20T16:40:11.563Z,94600.91
2023-01-20T16:42:57.359Z,94608.66
2023-01-20T16:45:43.298Z,94615.59
2023-01-20T16:48:29.096Z,94622.50
2023-01-20T16:51:20.818Z,94618.75
2023-01-20T16:54:06.376Z,94621.94
2023-01-20T16:56:51.817Z,94630.47
2023-01-20T16:59:37.579Z,94633.66
2023-01-20T17:02:23.041Z,94639.00
2023-01-20T17:05:09.105Z,94642.78
2023-01-20T17:07:56.925Z,94645.97
2023-01-20T17:10:46.512Z,94649.16
2023-01-20T17:13:31.927Z,94650.72
2023-01-20T17:16:17.848Z,94652.31
2023-01-20T17:19:03.550Z,94663.00
2023-01-20T17:21:50.277Z,94666.22
2023-01-20T17:24:36.311Z,94667.03
2023-01-20T17:27:22.710Z,94661.91
2023-01-20T17:30:10.127Z,94659.25
2023-01-20T17:32:56.466Z,94663.00
2023-01-20T17:35:43.098Z,94668.97
2023-01-20T17:38:29.420Z,94663.38
2023-01-20T17:41:15.048Z,94673.88
2023-01-20T17:44:00.760Z,94672.88
2023-01-20T17:46:47.752Z,94682.50
2023-01-20T17:49:33.822Z,94682.19
2023-01-20T17:52:20.311Z,94689.34
2023-01-20T17:55:06.002Z,94690.38
2023-01-20T17:57:51.781Z,94693.00
2023-01-20T18:00:37.524Z,94699.38
2023-01-20T18:03:25.303Z,94704.16
2023-01-20T18:06:11.495Z,94705.50
2023-01-20T18:08:58.396Z,94707.69
2023-01-20T18:11:44.090Z,94709.00
2023-01-20T18:14:29.684Z,94715.94
2023-01-20T18:17:15.222Z,94718.31
2023-01-20T18:20:01.154Z,94719.09
2023-01-20T18:22:47.170Z,94722.09
2023-01-20T18:25:32.835Z,94726.94
2023-01-20T18:28:18.188Z,94737.41
2023-01-20T18:31:08.855Z,94731.50
2023-01-20T18:33:55.669Z,94745.50
2023-01-20T18:36:41.925Z,94743.28
2023-01-20T18:39:28.249Z,94737.16
2023-01-20T18:42:14.042Z,94736.88
2023-01-20T18:44:59.594Z,94738.50
2023-01-20T18:47:45.351Z,94733.66
2023-01-20T18:50:30.752Z,94736.03
2023-01-20T18:53:16.453Z,94731.47
2023-01-20T18:56:02.015Z,94719.97
2023-01-20T18:58:47.429Z,94707.97
2023-01-20T19:01:34.341Z,94716.28
2023-01-20T19:04:19.775Z,94728.03
2023-01-20T19:07:06.012Z,94720.28
2023-01-20T19:09:52.031Z,94709.59
2023-01-20T19:12:37.770Z,94705.81
2023-01-20T19:15:23.201Z,94712.78
2023-01-20T19:18:08.881Z,94709.03
2023-01-20T19:20:54.477Z,94723.47
2023-01-20T19:23:40.292Z,94717.31
2023-01-20T19:26:26.219Z,94718.72
2023-01-20T19:29:15.928Z,94726.75
2023-01-20T19:32:01.322Z,94730.56
2023-01-20T19:34:47.248Z,94723.19
2023-01-20T19:37:32.953Z,94721.66
2023-01-20T19:40:18.840Z,94724.34
2023-01-20T19:43:04.595Z,94736.91
2023-01-20T19:45:50.646Z,94734.22
2023-01-20T19:48:37.573Z,94748.13
2023-01-20T19:51:23.435Z,94743.00
2023-01-20T19:54:10.312Z,94744.31
2023-01-20T19:56:56.657Z,94757.09
2023-01-20T19:59:42.351Z,94754.94
2023-01-20T20:02:27.925Z,94757.84
2023-01-20T20:05:13.646Z,94753.00
2023-01-20T20:07:59.356Z,94754.59
2023-01-20T20:10:45.072Z,94763.13
2023-01-20T20:13:30.817Z,94751.31
2023-01-20T20:16:18.010Z,94765.50
2023-01-20T20:19:03.833Z,94760.16
2023-01-20T20:21:57.679Z,94758.56
2023-01-20T20:24:43.355Z,94757.00
2023-01-20T20:27:29.265Z,94756.19
2023-01-20T20:30:15.169Z,94754.09
2023-01-20T20:33:01.834Z,94757.09
2023-01-20T20:35:47.581Z,94762.81
2023-01-20T20:38:34.696Z,94764.81
2023-01-20T20:41:20.647Z,94764.66
2023-01-20T20:44:06.397Z,94762.63
2023-01-20T20:46:52.098Z,94756.28
2023-01-20T20:49:37.655Z,94758.53
2023-01-20T20:52:23.473Z,94768.78
2023-01-20T20:55:11.489Z,94761.94
2023-01-20T20:57:58.212Z,94772.34
2023-01-20T21:00:45.136Z,94771.03
2023-01-20T21:03:31.363Z,94764.66
2023-01-20T21:06:16.892Z,94768.97
2023-01-20T21:09:02.800Z,94769.53
2023-01-20T21:11:48.572Z,94770.09
2023-01-20T21:14:34.179Z,94776.81
2023-01-20T21:17:19.715Z,94770.66
2023-01-20T21:20:08.424Z,94773.84
2023-01-20T21:22:53.958Z,94773.06
2023-01-20T21:25:40.510Z,94780.50
2023-01-20T21:28:26.756Z,94785.34
2023-01-20T21:31:13.511Z,94790.69
2023-01-20T21:34:00.417Z,94788.81
2023-01-20T21:36:46.500Z,94788.28
2023-01-20T21:39:33.199Z,94786.16
2023-01-20T21:42:18.762Z,94777.94
2023-01-20T21:45:04.550Z,94775.53
2023-01-20T21:47:50.282Z,94771.56
2023-01-20T21:51:11.491Z,94760.06
2023-01-20T21:53:57.027Z,94764.84
2023-01-20T21:56:42.885Z,94764.31
2023-01-20T21:59:28.723Z,94770.13
2023-01-20T22:02:14.552Z,94765.91
2023-01-20T22:05:07.908Z,94759.44
2023-01-20T22:07:53.151Z,94752.81
2023-01-20T22:10:38.791Z,94755.78
2023-01-20T22:13:24.736Z,94757.41
2023-01-20T22:16:11.529Z,94759.06
2023-01-20T22:18:56.921Z,94751.06
2023-01-20T22:21:44.868Z,94734.00
2023-01-20T22:24:30.659Z,94738.28
2023-01-20T22:27:18.134Z,94731.84
2023-01-20T22:30:03.701Z,94726.75
2023-01-20T22:32:49.214Z,94718.97
2023-01-20T22:35:34.727Z,94724.59
2023-01-20T22:38:20.331Z,94728.56
2023-01-20T22:41:06.958Z,94739.25
2023-01-20T22:43:52.994Z,94733.19
2023-01-20T22:46:38.738Z,94731.53
2023-01-20T22:49:24.519Z,94724.81
2023-01-20T22:52:10.565Z,94720.56
2023-01-20T22:54:56.258Z,94725.91
2023-01-20T22:57:41.883Z,94714.94
2023-01-20T23:00:27.523Z,94713.34
2023-01-20T23:03:13.189Z,94716.53
2023-01-20T23:05:59.301Z,94723.47
2023-01-20T23:08:44.987Z,94713.06
2023-01-20T23:11:31.105Z,94722.94
2023-01-20T23:14:16.857Z,94711.19
2023-01-20T23:17:02.657Z,94710.38
2023-01-20T23:19:48.267Z,94710.19
2023-01-20T23:22:33.963Z,94700.56
2023-01-20T23:25:20.526Z,94696.56
2023-01-20T23:28:06.238Z,94696.06
2023-01-20T23:30:51.839Z,94680.81
2023-01-20T23:33:37.218Z,94686.97
2023-01-20T23:36:23.832Z,94698.69
2023-01-20T23:39:09.510Z,94695.50
2023-01-20T23:41:56.032Z,94691.50
2023-01-20T23:44:41.405Z,94696.63
2023-01-20T23:47:26.929Z,94700.38
2023-01-20T23:50:12.780Z,94696.63
2023-01-20T23:52:58.440Z,94696.63
2023-01-20T23:55:44.193Z,94696.63
2023-01-20T23:58:29.672Z,94692.41
